<?xml version="1.0" encoding="UTF-8" standalone="no" ?>
<gpx xmlns="http://www.topografix.com/GPX/1/1" xmlns:xsi="http://www.w3.org/2001/XMLSchema-instance" xsi:schemaLocation="http://www.topografix.com/GPX/1/1 http://www.topografix.com/GPX/1/1/gpx.xsd" version="1.1" creator="VisuGPX - https://www.visugpx.com">
  <metadata>
    <name>Rando Plage et Bois de Breuil Honfleur (14)</name>
    <desc><![CDATA[Rando entre plage et campagne sur les hauteurs d'Honfleur
A retrouver sur [url]http://trekkingzone.fr[/url]]]></desc>
  </metadata>
  <trk>
    <name><![CDATA[track]]></name>
    <trkseg>
      <trkpt lat="49.42529" lon="0.22886">
        <ele>-6</ele>
        <time>2014-05-20T11:55:58Z</time>
      </trkpt>
      <trkpt lat="49.42534" lon="0.22882">
        <ele>-5</ele>
        <time>2014-05-20T11:56:20Z</time>
      </trkpt>
      <trkpt lat="49.42534" lon="0.22882">
        <ele>-4</ele>
        <time>2014-05-20T11:56:33Z</time>
      </trkpt>
      <trkpt lat="49.42535" lon="0.22882">
        <ele>-3</ele>
        <time>2014-05-20T11:56:54Z</time>
      </trkpt>
      <trkpt lat="49.42534" lon="0.2288">
        <ele>-2</ele>
        <time>2014-05-20T11:57:36Z</time>
      </trkpt>
      <trkpt lat="49.42529" lon="0.22883">
        <ele>-3</ele>
        <time>2014-05-20T11:57:46Z</time>
      </trkpt>
      <trkpt lat="49.42527" lon="0.22879">
        <ele>-2</ele>
        <time>2014-05-20T11:58:06Z</time>
      </trkpt>
      <trkpt lat="49.42526" lon="0.22875">
        <ele>-3</ele>
        <time>2014-05-20T11:58:17Z</time>
      </trkpt>
      <trkpt lat="49.42512" lon="0.2285">
        <ele>-3</ele>
        <time>2014-05-20T11:58:38Z</time>
      </trkpt>
      <trkpt lat="49.42511" lon="0.2284">
        <ele>-3</ele>
        <time>2014-05-20T11:58:58Z</time>
      </trkpt>
      <trkpt lat="49.4251" lon="0.2284">
        <ele>-3</ele>
        <time>2014-05-20T11:58:59Z</time>
      </trkpt>
      <trkpt lat="49.42499" lon="0.22845">
        <ele>-5</ele>
        <time>2014-05-20T11:59:18Z</time>
      </trkpt>
      <trkpt lat="49.42499" lon="0.22852">
        <ele>-5</ele>
        <time>2014-05-20T11:59:39Z</time>
      </trkpt>
      <trkpt lat="49.42498" lon="0.22851">
        <ele>-5</ele>
        <time>2014-05-20T11:59:52Z</time>
      </trkpt>
      <trkpt lat="49.42501" lon="0.22844">
        <ele>-4</ele>
        <time>2014-05-20T12:00:08Z</time>
      </trkpt>
      <trkpt lat="49.42505" lon="0.22846">
        <ele>-3</ele>
        <time>2014-05-20T12:00:15Z</time>
      </trkpt>
      <trkpt lat="49.42517" lon="0.22866">
        <ele>-2</ele>
        <time>2014-05-20T12:00:33Z</time>
      </trkpt>
      <trkpt lat="49.42522" lon="0.22874">
        <ele>-1</ele>
        <time>2014-05-20T12:00:53Z</time>
      </trkpt>
      <trkpt lat="49.42524" lon="0.22873">
        <ele>6.9</ele>
        <time>2014-05-20T12:01:19Z</time>
      </trkpt>
      <trkpt lat="49.42532" lon="0.22866">
        <ele>4</ele>
        <time>2014-05-20T12:01:46Z</time>
      </trkpt>
      <trkpt lat="49.42534" lon="0.22859">
        <ele>6</ele>
        <time>2014-05-20T12:02:06Z</time>
      </trkpt>
      <trkpt lat="49.42534" lon="0.22857">
        <ele>5</ele>
        <time>2014-05-20T12:02:38Z</time>
      </trkpt>
      <trkpt lat="49.42536" lon="0.2287">
        <ele>3</ele>
        <time>2014-05-20T12:04:18Z</time>
      </trkpt>
      <trkpt lat="49.42532" lon="0.2287">
        <ele>3</ele>
        <time>2014-05-20T12:04:44Z</time>
      </trkpt>
      <trkpt lat="49.42533" lon="0.22872">
        <ele>3</ele>
        <time>2014-05-20T12:04:59Z</time>
      </trkpt>
      <trkpt lat="49.42528" lon="0.22872">
        <ele>1</ele>
        <time>2014-05-20T12:05:09Z</time>
      </trkpt>
      <trkpt lat="49.42524" lon="0.22869">
        <ele>2</ele>
        <time>2014-05-20T12:05:13Z</time>
      </trkpt>
      <trkpt lat="49.42516" lon="0.22859">
        <ele>1</ele>
        <time>2014-05-20T12:05:23Z</time>
      </trkpt>
      <trkpt lat="49.42505" lon="0.2284">
        <ele>-1</ele>
        <time>2014-05-20T12:05:42Z</time>
      </trkpt>
      <trkpt lat="49.42494" lon="0.22841">
        <ele>-1</ele>
        <time>2014-05-20T12:06:01Z</time>
      </trkpt>
      <trkpt lat="49.42486" lon="0.22841">
        <ele>-1</ele>
        <time>2014-05-20T12:06:19Z</time>
      </trkpt>
      <trkpt lat="49.4248" lon="0.22836">
        <ele>6.9</ele>
        <time>2014-05-20T12:06:39Z</time>
      </trkpt>
      <trkpt lat="49.42482" lon="0.22839">
        <ele>2</ele>
        <time>2014-05-20T12:07:04Z</time>
      </trkpt>
      <trkpt lat="49.42477" lon="0.22841">
        <ele>3</ele>
        <time>2014-05-20T12:07:20Z</time>
      </trkpt>
      <trkpt lat="49.42464" lon="0.22844">
        <ele>4</ele>
        <time>2014-05-20T12:07:33Z</time>
      </trkpt>
      <trkpt lat="49.42435" lon="0.22856">
        <ele>7.1</ele>
        <time>2014-05-20T12:07:55Z</time>
      </trkpt>
      <trkpt lat="49.42411" lon="0.22873">
        <ele>7.3</ele>
        <time>2014-05-20T12:08:14Z</time>
      </trkpt>
      <trkpt lat="49.42397" lon="0.22868">
        <ele>2</ele>
        <time>2014-05-20T12:08:28Z</time>
      </trkpt>
      <trkpt lat="49.42392" lon="0.22868">
        <ele>3</ele>
        <time>2014-05-20T12:08:32Z</time>
      </trkpt>
      <trkpt lat="49.4237" lon="0.22885">
        <ele>7</ele>
        <time>2014-05-20T12:08:49Z</time>
      </trkpt>
      <trkpt lat="49.42347" lon="0.22898">
        <ele>11</ele>
        <time>2014-05-20T12:09:09Z</time>
      </trkpt>
      <trkpt lat="49.42346" lon="0.22898">
        <ele>11</ele>
        <time>2014-05-20T12:09:10Z</time>
      </trkpt>
      <trkpt lat="49.42348" lon="0.22882">
        <ele>15</ele>
        <time>2014-05-20T12:09:21Z</time>
      </trkpt>
      <trkpt lat="49.42354" lon="0.22871">
        <ele>16</ele>
        <time>2014-05-20T12:09:28Z</time>
      </trkpt>
      <trkpt lat="49.42355" lon="0.22871">
        <ele>18</ele>
        <time>2014-05-20T12:09:30Z</time>
      </trkpt>
      <trkpt lat="49.42362" lon="0.22835">
        <ele>21</ele>
        <time>2014-05-20T12:09:47Z</time>
      </trkpt>
      <trkpt lat="49.42372" lon="0.22795">
        <ele>27</ele>
        <time>2014-05-20T12:10:07Z</time>
      </trkpt>
      <trkpt lat="49.42379" lon="0.22768">
        <ele>32</ele>
        <time>2014-05-20T12:10:21Z</time>
      </trkpt>
      <trkpt lat="49.42385" lon="0.22754">
        <ele>38</ele>
        <time>2014-05-20T12:10:30Z</time>
      </trkpt>
      <trkpt lat="49.42409" lon="0.22714">
        <ele>45</ele>
        <time>2014-05-20T12:10:49Z</time>
      </trkpt>
      <trkpt lat="49.42399" lon="0.227">
        <ele>38</ele>
        <time>2014-05-20T12:10:56Z</time>
      </trkpt>
      <trkpt lat="49.42402" lon="0.22675">
        <ele>38</ele>
        <time>2014-05-20T12:11:08Z</time>
      </trkpt>
      <trkpt lat="49.42395" lon="0.2267">
        <ele>38</ele>
        <time>2014-05-20T12:11:13Z</time>
      </trkpt>
      <trkpt lat="49.42368" lon="0.22665">
        <ele>37</ele>
        <time>2014-05-20T12:11:29Z</time>
      </trkpt>
      <trkpt lat="49.42347" lon="0.22658">
        <ele>35</ele>
        <time>2014-05-20T12:11:47Z</time>
      </trkpt>
      <trkpt lat="49.42343" lon="0.22659">
        <ele>36</ele>
        <time>2014-05-20T12:11:51Z</time>
      </trkpt>
      <trkpt lat="49.42323" lon="0.22656">
        <ele>35</ele>
        <time>2014-05-20T12:12:03Z</time>
      </trkpt>
      <trkpt lat="49.42318" lon="0.22657">
        <ele>34</ele>
        <time>2014-05-20T12:12:07Z</time>
      </trkpt>
      <trkpt lat="49.42308" lon="0.22666">
        <ele>33</ele>
        <time>2014-05-20T12:12:17Z</time>
      </trkpt>
      <trkpt lat="49.42306" lon="0.22675">
        <ele>32</ele>
        <time>2014-05-20T12:12:21Z</time>
      </trkpt>
      <trkpt lat="49.42304" lon="0.22681">
        <ele>34</ele>
        <time>2014-05-20T12:12:24Z</time>
      </trkpt>
      <trkpt lat="49.42302" lon="0.22692">
        <ele>33</ele>
        <time>2014-05-20T12:12:29Z</time>
      </trkpt>
      <trkpt lat="49.42299" lon="0.22701">
        <ele>33</ele>
        <time>2014-05-20T12:12:33Z</time>
      </trkpt>
      <trkpt lat="49.42295" lon="0.22736">
        <ele>31</ele>
        <time>2014-05-20T12:12:46Z</time>
      </trkpt>
      <trkpt lat="49.42291" lon="0.22746">
        <ele>31</ele>
        <time>2014-05-20T12:12:53Z</time>
      </trkpt>
      <trkpt lat="49.42286" lon="0.22781">
        <ele>37</ele>
        <time>2014-05-20T12:13:08Z</time>
      </trkpt>
      <trkpt lat="49.42285" lon="0.22783">
        <ele>38</ele>
        <time>2014-05-20T12:13:09Z</time>
      </trkpt>
      <trkpt lat="49.42281" lon="0.22792">
        <ele>37</ele>
        <time>2014-05-20T12:13:13Z</time>
      </trkpt>
      <trkpt lat="49.42276" lon="0.22818">
        <ele>36</ele>
        <time>2014-05-20T12:13:25Z</time>
      </trkpt>
      <trkpt lat="49.42273" lon="0.22828">
        <ele>36</ele>
        <time>2014-05-20T12:13:30Z</time>
      </trkpt>
      <trkpt lat="49.42272" lon="0.22828">
        <ele>37</ele>
        <time>2014-05-20T12:13:32Z</time>
      </trkpt>
      <trkpt lat="49.42272" lon="0.22822">
        <ele>40</ele>
        <time>2014-05-20T12:13:39Z</time>
      </trkpt>
      <trkpt lat="49.42272" lon="0.22815">
        <ele>41</ele>
        <time>2014-05-20T12:13:42Z</time>
      </trkpt>
      <trkpt lat="49.42284" lon="0.2278">
        <ele>42</ele>
        <time>2014-05-20T12:13:58Z</time>
      </trkpt>
      <trkpt lat="49.42286" lon="0.22754">
        <ele>44</ele>
        <time>2014-05-20T12:14:10Z</time>
      </trkpt>
      <trkpt lat="49.42286" lon="0.22744">
        <ele>45</ele>
        <time>2014-05-20T12:14:20Z</time>
      </trkpt>
      <trkpt lat="49.42285" lon="0.22743">
        <ele>45</ele>
        <time>2014-05-20T12:14:21Z</time>
      </trkpt>
      <trkpt lat="49.42276" lon="0.22724">
        <ele>50</ele>
        <time>2014-05-20T12:14:32Z</time>
      </trkpt>
      <trkpt lat="49.42288" lon="0.22701">
        <ele>51</ele>
        <time>2014-05-20T12:14:40Z</time>
      </trkpt>
      <trkpt lat="49.42291" lon="0.22681">
        <ele>51</ele>
        <time>2014-05-20T12:14:53Z</time>
      </trkpt>
      <trkpt lat="49.4229" lon="0.22658">
        <ele>53</ele>
        <time>2014-05-20T12:15:05Z</time>
      </trkpt>
      <trkpt lat="49.42288" lon="0.22643">
        <ele>56</ele>
        <time>2014-05-20T12:15:21Z</time>
      </trkpt>
      <trkpt lat="49.4229" lon="0.22635">
        <ele>57</ele>
        <time>2014-05-20T12:15:24Z</time>
      </trkpt>
      <trkpt lat="49.423" lon="0.226">
        <ele>62</ele>
        <time>2014-05-20T12:15:45Z</time>
      </trkpt>
      <trkpt lat="49.42301" lon="0.22565">
        <ele>70</ele>
        <time>2014-05-20T12:16:09Z</time>
      </trkpt>
      <trkpt lat="49.4231" lon="0.22507">
        <ele>75</ele>
        <time>2014-05-20T12:16:30Z</time>
      </trkpt>
      <trkpt lat="49.42322" lon="0.22477">
        <ele>79</ele>
        <time>2014-05-20T12:16:47Z</time>
      </trkpt>
      <trkpt lat="49.42322" lon="0.22453">
        <ele>84</ele>
        <time>2014-05-20T12:17:08Z</time>
      </trkpt>
      <trkpt lat="49.42314" lon="0.22429">
        <ele>90</ele>
        <time>2014-05-20T12:17:20Z</time>
      </trkpt>
      <trkpt lat="49.42316" lon="0.22401">
        <ele>93</ele>
        <time>2014-05-20T12:17:35Z</time>
      </trkpt>
      <trkpt lat="49.42321" lon="0.22375">
        <ele>99</ele>
        <time>2014-05-20T12:17:52Z</time>
      </trkpt>
      <trkpt lat="49.42321" lon="0.2234">
        <ele>103</ele>
        <time>2014-05-20T12:18:13Z</time>
      </trkpt>
      <trkpt lat="49.42332" lon="0.22308">
        <ele>109</ele>
        <time>2014-05-20T12:18:33Z</time>
      </trkpt>
      <trkpt lat="49.42336" lon="0.22249">
        <ele>114</ele>
        <time>2014-05-20T12:19:02Z</time>
      </trkpt>
      <trkpt lat="49.42337" lon="0.22246">
        <ele>114</ele>
        <time>2014-05-20T12:19:03Z</time>
      </trkpt>
      <trkpt lat="49.42341" lon="0.22232">
        <ele>114</ele>
        <time>2014-05-20T12:19:10Z</time>
      </trkpt>
      <trkpt lat="49.42343" lon="0.22226">
        <ele>114</ele>
        <time>2014-05-20T12:19:13Z</time>
      </trkpt>
      <trkpt lat="49.42351" lon="0.22205">
        <ele>112</ele>
        <time>2014-05-20T12:19:22Z</time>
      </trkpt>
      <trkpt lat="49.42359" lon="0.22187">
        <ele>104</ele>
        <time>2014-05-20T12:19:40Z</time>
      </trkpt>
      <trkpt lat="49.42355" lon="0.22179">
        <ele>99</ele>
        <time>2014-05-20T12:19:56Z</time>
      </trkpt>
      <trkpt lat="49.42351" lon="0.22179">
        <ele>96</ele>
        <time>2014-05-20T12:20:16Z</time>
      </trkpt>
      <trkpt lat="49.42346" lon="0.22183">
        <ele>96</ele>
        <time>2014-05-20T12:20:37Z</time>
      </trkpt>
      <trkpt lat="49.42341" lon="0.22182">
        <ele>95</ele>
        <time>2014-05-20T12:20:40Z</time>
      </trkpt>
      <trkpt lat="49.42324" lon="0.22162">
        <ele>96</ele>
        <time>2014-05-20T12:20:59Z</time>
      </trkpt>
      <trkpt lat="49.42308" lon="0.22168">
        <ele>98</ele>
        <time>2014-05-20T12:21:14Z</time>
      </trkpt>
      <trkpt lat="49.42306" lon="0.22174">
        <ele>104</ele>
        <time>2014-05-20T12:21:29Z</time>
      </trkpt>
      <trkpt lat="49.42306" lon="0.22179">
        <ele>106</ele>
        <time>2014-05-20T12:21:50Z</time>
      </trkpt>
      <trkpt lat="49.42299" lon="0.22168">
        <ele>109</ele>
        <time>2014-05-20T12:22:04Z</time>
      </trkpt>
      <trkpt lat="49.42297" lon="0.22165">
        <ele>108</ele>
        <time>2014-05-20T12:22:07Z</time>
      </trkpt>
      <trkpt lat="49.4229" lon="0.22155">
        <ele>100</ele>
        <time>2014-05-20T12:22:22Z</time>
      </trkpt>
      <trkpt lat="49.42289" lon="0.2211">
        <ele>97</ele>
        <time>2014-05-20T12:22:37Z</time>
      </trkpt>
      <trkpt lat="49.42276" lon="0.22081">
        <ele>94</ele>
        <time>2014-05-20T12:22:54Z</time>
      </trkpt>
      <trkpt lat="49.4226" lon="0.22069">
        <ele>90</ele>
        <time>2014-05-20T12:23:09Z</time>
      </trkpt>
      <trkpt lat="49.42239" lon="0.22055">
        <ele>90</ele>
        <time>2014-05-20T12:23:21Z</time>
      </trkpt>
      <trkpt lat="49.42231" lon="0.22041">
        <ele>92</ele>
        <time>2014-05-20T12:23:28Z</time>
      </trkpt>
      <trkpt lat="49.42229" lon="0.22035">
        <ele>93</ele>
        <time>2014-05-20T12:23:31Z</time>
      </trkpt>
      <trkpt lat="49.42229" lon="0.22026">
        <ele>94</ele>
        <time>2014-05-20T12:23:35Z</time>
      </trkpt>
      <trkpt lat="49.42217" lon="0.21982">
        <ele>94</ele>
        <time>2014-05-20T12:23:54Z</time>
      </trkpt>
      <trkpt lat="49.4221" lon="0.21964">
        <ele>94</ele>
        <time>2014-05-20T12:24:03Z</time>
      </trkpt>
      <trkpt lat="49.42204" lon="0.21957">
        <ele>95</ele>
        <time>2014-05-20T12:24:17Z</time>
      </trkpt>
      <trkpt lat="49.422" lon="0.21955">
        <ele>96</ele>
        <time>2014-05-20T12:24:50Z</time>
      </trkpt>
      <trkpt lat="49.42199" lon="0.21953">
        <ele>95</ele>
        <time>2014-05-20T12:25:22Z</time>
      </trkpt>
      <trkpt lat="49.42199" lon="0.21951">
        <ele>94</ele>
        <time>2014-05-20T12:25:35Z</time>
      </trkpt>
      <trkpt lat="49.42196" lon="0.21943">
        <ele>95</ele>
        <time>2014-05-20T12:25:41Z</time>
      </trkpt>
      <trkpt lat="49.42179" lon="0.21932">
        <ele>95</ele>
        <time>2014-05-20T12:25:55Z</time>
      </trkpt>
      <trkpt lat="49.4217" lon="0.21902">
        <ele>97</ele>
        <time>2014-05-20T12:26:07Z</time>
      </trkpt>
      <trkpt lat="49.42156" lon="0.21873">
        <ele>103</ele>
        <time>2014-05-20T12:26:21Z</time>
      </trkpt>
      <trkpt lat="49.42144" lon="0.21844">
        <ele>104</ele>
        <time>2014-05-20T12:26:36Z</time>
      </trkpt>
      <trkpt lat="49.42144" lon="0.21835">
        <ele>103</ele>
        <time>2014-05-20T12:26:42Z</time>
      </trkpt>
      <trkpt lat="49.42143" lon="0.21823">
        <ele>101</ele>
        <time>2014-05-20T12:26:46Z</time>
      </trkpt>
      <trkpt lat="49.42135" lon="0.21799">
        <ele>104</ele>
        <time>2014-05-20T12:26:57Z</time>
      </trkpt>
      <trkpt lat="49.42133" lon="0.21796">
        <ele>105</ele>
        <time>2014-05-20T12:26:59Z</time>
      </trkpt>
      <trkpt lat="49.42127" lon="0.21777">
        <ele>106</ele>
        <time>2014-05-20T12:27:10Z</time>
      </trkpt>
      <trkpt lat="49.4212" lon="0.21757">
        <ele>110</ele>
        <time>2014-05-20T12:27:22Z</time>
      </trkpt>
      <trkpt lat="49.4211" lon="0.21721">
        <ele>115</ele>
        <time>2014-05-20T12:27:37Z</time>
      </trkpt>
      <trkpt lat="49.42103" lon="0.21686">
        <ele>117</ele>
        <time>2014-05-20T12:27:52Z</time>
      </trkpt>
      <trkpt lat="49.42099" lon="0.21674">
        <ele>116</ele>
        <time>2014-05-20T12:27:58Z</time>
      </trkpt>
      <trkpt lat="49.42097" lon="0.21668">
        <ele>117</ele>
        <time>2014-05-20T12:28:01Z</time>
      </trkpt>
      <trkpt lat="49.42095" lon="0.21654">
        <ele>118</ele>
        <time>2014-05-20T12:28:07Z</time>
      </trkpt>
      <trkpt lat="49.42085" lon="0.21633">
        <ele>122</ele>
        <time>2014-05-20T12:28:18Z</time>
      </trkpt>
      <trkpt lat="49.42081" lon="0.21624">
        <ele>125</ele>
        <time>2014-05-20T12:28:23Z</time>
      </trkpt>
      <trkpt lat="49.42071" lon="0.21606">
        <ele>129</ele>
        <time>2014-05-20T12:28:35Z</time>
      </trkpt>
      <trkpt lat="49.42062" lon="0.21574">
        <ele>130</ele>
        <time>2014-05-20T12:28:52Z</time>
      </trkpt>
      <trkpt lat="49.42039" lon="0.21531">
        <ele>124</ele>
        <time>2014-05-20T12:29:16Z</time>
      </trkpt>
      <trkpt lat="49.42036" lon="0.21531">
        <ele>123</ele>
        <time>2014-05-20T12:29:17Z</time>
      </trkpt>
      <trkpt lat="49.42019" lon="0.21514">
        <ele>121</ele>
        <time>2014-05-20T12:29:34Z</time>
      </trkpt>
      <trkpt lat="49.4199" lon="0.21491">
        <ele>119</ele>
        <time>2014-05-20T12:29:57Z</time>
      </trkpt>
      <trkpt lat="49.41957" lon="0.21474">
        <ele>111</ele>
        <time>2014-05-20T12:30:13Z</time>
      </trkpt>
      <trkpt lat="49.41934" lon="0.21467">
        <ele>103</ele>
        <time>2014-05-20T12:30:25Z</time>
      </trkpt>
      <trkpt lat="49.4193" lon="0.21457">
        <ele>101</ele>
        <time>2014-05-20T12:30:34Z</time>
      </trkpt>
      <trkpt lat="49.41916" lon="0.21437">
        <ele>100</ele>
        <time>2014-05-20T12:30:47Z</time>
      </trkpt>
      <trkpt lat="49.41902" lon="0.21424">
        <ele>98</ele>
        <time>2014-05-20T12:30:55Z</time>
      </trkpt>
      <trkpt lat="49.41866" lon="0.21392">
        <ele>91</ele>
        <time>2014-05-20T12:31:16Z</time>
      </trkpt>
      <trkpt lat="49.41856" lon="0.21388">
        <ele>88</ele>
        <time>2014-05-20T12:31:23Z</time>
      </trkpt>
      <trkpt lat="49.41834" lon="0.21347">
        <ele>83</ele>
        <time>2014-05-20T12:31:42Z</time>
      </trkpt>
      <trkpt lat="49.41818" lon="0.21325">
        <ele>87</ele>
        <time>2014-05-20T12:31:54Z</time>
      </trkpt>
      <trkpt lat="49.41798" lon="0.21279">
        <ele>89</ele>
        <time>2014-05-20T12:32:15Z</time>
      </trkpt>
      <trkpt lat="49.41781" lon="0.21237">
        <ele>92</ele>
        <time>2014-05-20T12:32:35Z</time>
      </trkpt>
      <trkpt lat="49.41767" lon="0.21194">
        <ele>93</ele>
        <time>2014-05-20T12:32:53Z</time>
      </trkpt>
      <trkpt lat="49.41749" lon="0.21141">
        <ele>98</ele>
        <time>2014-05-20T12:33:17Z</time>
      </trkpt>
      <trkpt lat="49.41742" lon="0.21117">
        <ele>100</ele>
        <time>2014-05-20T12:33:28Z</time>
      </trkpt>
      <trkpt lat="49.41743" lon="0.21104">
        <ele>97</ele>
        <time>2014-05-20T12:33:39Z</time>
      </trkpt>
      <trkpt lat="49.41713" lon="0.21116">
        <ele>94</ele>
        <time>2014-05-20T12:34:02Z</time>
      </trkpt>
      <trkpt lat="49.41676" lon="0.21133">
        <ele>96</ele>
        <time>2014-05-20T12:34:27Z</time>
      </trkpt>
      <trkpt lat="49.41635" lon="0.21152">
        <ele>97</ele>
        <time>2014-05-20T12:34:54Z</time>
      </trkpt>
      <trkpt lat="49.4162" lon="0.21159">
        <ele>97</ele>
        <time>2014-05-20T12:35:10Z</time>
      </trkpt>
      <trkpt lat="49.41608" lon="0.21165">
        <ele>97</ele>
        <time>2014-05-20T12:35:22Z</time>
      </trkpt>
      <trkpt lat="49.41571" lon="0.21182">
        <ele>97</ele>
        <time>2014-05-20T12:35:48Z</time>
      </trkpt>
      <trkpt lat="49.41516" lon="0.21198">
        <ele>98</ele>
        <time>2014-05-20T12:36:23Z</time>
      </trkpt>
      <trkpt lat="49.41477" lon="0.21205">
        <ele>98</ele>
        <time>2014-05-20T12:36:48Z</time>
      </trkpt>
      <trkpt lat="49.41435" lon="0.21214">
        <ele>98</ele>
        <time>2014-05-20T12:37:15Z</time>
      </trkpt>
      <trkpt lat="49.41411" lon="0.2122">
        <ele>99</ele>
        <time>2014-05-20T12:37:33Z</time>
      </trkpt>
      <trkpt lat="49.41396" lon="0.21221">
        <ele>103</ele>
        <time>2014-05-20T12:37:46Z</time>
      </trkpt>
      <trkpt lat="49.41386" lon="0.21225">
        <ele>103</ele>
        <time>2014-05-20T12:37:54Z</time>
      </trkpt>
      <trkpt lat="49.41366" lon="0.21227">
        <ele>105</ele>
        <time>2014-05-20T12:38:05Z</time>
      </trkpt>
      <trkpt lat="49.41353" lon="0.21227">
        <ele>108</ele>
        <time>2014-05-20T12:38:15Z</time>
      </trkpt>
      <trkpt lat="49.41341" lon="0.2123">
        <ele>110</ele>
        <time>2014-05-20T12:38:24Z</time>
      </trkpt>
      <trkpt lat="49.4132" lon="0.21234">
        <ele>107</ele>
        <time>2014-05-20T12:38:36Z</time>
      </trkpt>
      <trkpt lat="49.41295" lon="0.2124">
        <ele>107</ele>
        <time>2014-05-20T12:38:52Z</time>
      </trkpt>
      <trkpt lat="49.41277" lon="0.21244">
        <ele>107</ele>
        <time>2014-05-20T12:39:03Z</time>
      </trkpt>
      <trkpt lat="49.41251" lon="0.2125">
        <ele>107</ele>
        <time>2014-05-20T12:39:19Z</time>
      </trkpt>
      <trkpt lat="49.41234" lon="0.21256">
        <ele>107</ele>
        <time>2014-05-20T12:39:31Z</time>
      </trkpt>
      <trkpt lat="49.41201" lon="0.21262">
        <ele>105</ele>
        <time>2014-05-20T12:39:52Z</time>
      </trkpt>
      <trkpt lat="49.41184" lon="0.21265">
        <ele>107</ele>
        <time>2014-05-20T12:40:02Z</time>
      </trkpt>
      <trkpt lat="49.41162" lon="0.21271">
        <ele>106</ele>
        <time>2014-05-20T12:40:16Z</time>
      </trkpt>
      <trkpt lat="49.41158" lon="0.21272">
        <ele>106</ele>
        <time>2014-05-20T12:40:19Z</time>
      </trkpt>
      <trkpt lat="49.41155" lon="0.21273">
        <ele>105</ele>
        <time>2014-05-20T12:40:21Z</time>
      </trkpt>
      <trkpt lat="49.41127" lon="0.2128">
        <ele>103</ele>
        <time>2014-05-20T12:40:36Z</time>
      </trkpt>
      <trkpt lat="49.41112" lon="0.21283">
        <ele>105</ele>
        <time>2014-05-20T12:40:45Z</time>
      </trkpt>
      <trkpt lat="49.41087" lon="0.21288">
        <ele>105</ele>
        <time>2014-05-20T12:41:00Z</time>
      </trkpt>
      <trkpt lat="49.41063" lon="0.21292">
        <ele>107</ele>
        <time>2014-05-20T12:41:14Z</time>
      </trkpt>
      <trkpt lat="49.41034" lon="0.213">
        <ele>104</ele>
        <time>2014-05-20T12:41:29Z</time>
      </trkpt>
      <trkpt lat="49.41004" lon="0.21307">
        <ele>103</ele>
        <time>2014-05-20T12:41:48Z</time>
      </trkpt>
      <trkpt lat="49.40981" lon="0.21314">
        <ele>103</ele>
        <time>2014-05-20T12:42:03Z</time>
      </trkpt>
      <trkpt lat="49.4098" lon="0.21315">
        <ele>103</ele>
        <time>2014-05-20T12:42:06Z</time>
      </trkpt>
      <trkpt lat="49.40974" lon="0.21314">
        <ele>104</ele>
        <time>2014-05-20T12:42:12Z</time>
      </trkpt>
      <trkpt lat="49.40971" lon="0.21308">
        <ele>104</ele>
        <time>2014-05-20T12:42:17Z</time>
      </trkpt>
      <trkpt lat="49.40966" lon="0.21302">
        <ele>105</ele>
        <time>2014-05-20T12:42:22Z</time>
      </trkpt>
      <trkpt lat="49.40949" lon="0.21271">
        <ele>103</ele>
        <time>2014-05-20T12:42:37Z</time>
      </trkpt>
      <trkpt lat="49.4094" lon="0.21255">
        <ele>102</ele>
        <time>2014-05-20T12:42:46Z</time>
      </trkpt>
      <trkpt lat="49.40939" lon="0.21251">
        <ele>101</ele>
        <time>2014-05-20T12:42:48Z</time>
      </trkpt>
      <trkpt lat="49.40935" lon="0.21242">
        <ele>101</ele>
        <time>2014-05-20T12:42:52Z</time>
      </trkpt>
      <trkpt lat="49.40933" lon="0.21237">
        <ele>101</ele>
        <time>2014-05-20T12:42:54Z</time>
      </trkpt>
      <trkpt lat="49.40929" lon="0.21223">
        <ele>102</ele>
        <time>2014-05-20T12:43:01Z</time>
      </trkpt>
      <trkpt lat="49.4092" lon="0.21199">
        <ele>103</ele>
        <time>2014-05-20T12:43:12Z</time>
      </trkpt>
      <trkpt lat="49.40909" lon="0.2118">
        <ele>104</ele>
        <time>2014-05-20T12:43:22Z</time>
      </trkpt>
      <trkpt lat="49.40894" lon="0.21143">
        <ele>106</ele>
        <time>2014-05-20T12:43:36Z</time>
      </trkpt>
      <trkpt lat="49.40893" lon="0.21139">
        <ele>107</ele>
        <time>2014-05-20T12:43:38Z</time>
      </trkpt>
      <trkpt lat="49.40876" lon="0.21108">
        <ele>109</ele>
        <time>2014-05-20T12:43:53Z</time>
      </trkpt>
      <trkpt lat="49.4086" lon="0.21066">
        <ele>106</ele>
        <time>2014-05-20T12:44:11Z</time>
      </trkpt>
      <trkpt lat="49.40847" lon="0.21038">
        <ele>107</ele>
        <time>2014-05-20T12:44:26Z</time>
      </trkpt>
      <trkpt lat="49.4084" lon="0.21018">
        <ele>108</ele>
        <time>2014-05-20T12:44:35Z</time>
      </trkpt>
      <trkpt lat="49.4084" lon="0.21014">
        <ele>108</ele>
        <time>2014-05-20T12:44:37Z</time>
      </trkpt>
      <trkpt lat="49.40833" lon="0.20991">
        <ele>106</ele>
        <time>2014-05-20T12:44:47Z</time>
      </trkpt>
      <trkpt lat="49.40822" lon="0.20961">
        <ele>106</ele>
        <time>2014-05-20T12:45:01Z</time>
      </trkpt>
      <trkpt lat="49.40818" lon="0.20954">
        <ele>106</ele>
        <time>2014-05-20T12:45:06Z</time>
      </trkpt>
      <trkpt lat="49.40817" lon="0.20945">
        <ele>107</ele>
        <time>2014-05-20T12:45:12Z</time>
      </trkpt>
      <trkpt lat="49.40804" lon="0.20918">
        <ele>104</ele>
        <time>2014-05-20T12:45:32Z</time>
      </trkpt>
      <trkpt lat="49.40792" lon="0.20889">
        <ele>105</ele>
        <time>2014-05-20T12:45:51Z</time>
      </trkpt>
      <trkpt lat="49.40788" lon="0.20881">
        <ele>105</ele>
        <time>2014-05-20T12:45:57Z</time>
      </trkpt>
      <trkpt lat="49.40784" lon="0.20873">
        <ele>107</ele>
        <time>2014-05-20T12:46:04Z</time>
      </trkpt>
      <trkpt lat="49.4078" lon="0.20853">
        <ele>112</ele>
        <time>2014-05-20T12:46:19Z</time>
      </trkpt>
      <trkpt lat="49.40777" lon="0.20843">
        <ele>112</ele>
        <time>2014-05-20T12:46:53Z</time>
      </trkpt>
      <trkpt lat="49.40755" lon="0.20802">
        <ele>108</ele>
        <time>2014-05-20T12:47:16Z</time>
      </trkpt>
      <trkpt lat="49.4075" lon="0.20787">
        <ele>105</ele>
        <time>2014-05-20T12:47:23Z</time>
      </trkpt>
      <trkpt lat="49.40737" lon="0.20764">
        <ele>104</ele>
        <time>2014-05-20T12:47:36Z</time>
      </trkpt>
      <trkpt lat="49.40724" lon="0.20744">
        <ele>105</ele>
        <time>2014-05-20T12:47:50Z</time>
      </trkpt>
      <trkpt lat="49.40721" lon="0.20735">
        <ele>108</ele>
        <time>2014-05-20T12:47:54Z</time>
      </trkpt>
      <trkpt lat="49.40715" lon="0.20729">
        <ele>110</ele>
        <time>2014-05-20T12:47:59Z</time>
      </trkpt>
      <trkpt lat="49.40706" lon="0.20705">
        <ele>112</ele>
        <time>2014-05-20T12:48:11Z</time>
      </trkpt>
      <trkpt lat="49.40702" lon="0.20695">
        <ele>113</ele>
        <time>2014-05-20T12:48:16Z</time>
      </trkpt>
      <trkpt lat="49.40689" lon="0.20673">
        <ele>113</ele>
        <time>2014-05-20T12:48:28Z</time>
      </trkpt>
      <trkpt lat="49.40669" lon="0.2064">
        <ele>108</ele>
        <time>2014-05-20T12:48:48Z</time>
      </trkpt>
      <trkpt lat="49.40663" lon="0.20634">
        <ele>106</ele>
        <time>2014-05-20T12:48:53Z</time>
      </trkpt>
      <trkpt lat="49.40659" lon="0.20626">
        <ele>105</ele>
        <time>2014-05-20T12:48:58Z</time>
      </trkpt>
      <trkpt lat="49.40646" lon="0.20606">
        <ele>104</ele>
        <time>2014-05-20T12:49:12Z</time>
      </trkpt>
      <trkpt lat="49.40638" lon="0.20598">
        <ele>104</ele>
        <time>2014-05-20T12:49:17Z</time>
      </trkpt>
      <trkpt lat="49.40634" lon="0.20592">
        <ele>103</ele>
        <time>2014-05-20T12:49:21Z</time>
      </trkpt>
      <trkpt lat="49.40627" lon="0.20584">
        <ele>103</ele>
        <time>2014-05-20T12:49:27Z</time>
      </trkpt>
      <trkpt lat="49.40622" lon="0.20581">
        <ele>103</ele>
        <time>2014-05-20T12:49:30Z</time>
      </trkpt>
      <trkpt lat="49.40593" lon="0.20548">
        <ele>99</ele>
        <time>2014-05-20T12:49:52Z</time>
      </trkpt>
      <trkpt lat="49.40585" lon="0.20545">
        <ele>98</ele>
        <time>2014-05-20T12:49:57Z</time>
      </trkpt>
      <trkpt lat="49.40578" lon="0.20533">
        <ele>98</ele>
        <time>2014-05-20T12:50:05Z</time>
      </trkpt>
      <trkpt lat="49.40566" lon="0.2051">
        <ele>101</ele>
        <time>2014-05-20T12:50:20Z</time>
      </trkpt>
      <trkpt lat="49.40565" lon="0.20503">
        <ele>103</ele>
        <time>2014-05-20T12:50:25Z</time>
      </trkpt>
      <trkpt lat="49.40565" lon="0.2046">
        <ele>102</ele>
        <time>2014-05-20T12:50:42Z</time>
      </trkpt>
      <trkpt lat="49.40563" lon="0.2043">
        <ele>103</ele>
        <time>2014-05-20T12:50:53Z</time>
      </trkpt>
      <trkpt lat="49.40561" lon="0.20424">
        <ele>104</ele>
        <time>2014-05-20T12:50:57Z</time>
      </trkpt>
      <trkpt lat="49.40562" lon="0.20418">
        <ele>105</ele>
        <time>2014-05-20T12:50:59Z</time>
      </trkpt>
      <trkpt lat="49.40559" lon="0.20371">
        <ele>110</ele>
        <time>2014-05-20T12:51:18Z</time>
      </trkpt>
      <trkpt lat="49.40556" lon="0.20366">
        <ele>111</ele>
        <time>2014-05-20T12:51:22Z</time>
      </trkpt>
      <trkpt lat="49.40543" lon="0.20337">
        <ele>110</ele>
        <time>2014-05-20T12:51:37Z</time>
      </trkpt>
      <trkpt lat="49.4054" lon="0.20331">
        <ele>111</ele>
        <time>2014-05-20T12:51:41Z</time>
      </trkpt>
      <trkpt lat="49.40536" lon="0.20313">
        <ele>110</ele>
        <time>2014-05-20T12:51:49Z</time>
      </trkpt>
      <trkpt lat="49.40532" lon="0.20307">
        <ele>110</ele>
        <time>2014-05-20T12:51:53Z</time>
      </trkpt>
      <trkpt lat="49.40531" lon="0.20281">
        <ele>108</ele>
        <time>2014-05-20T12:52:01Z</time>
      </trkpt>
      <trkpt lat="49.40528" lon="0.20274">
        <ele>109</ele>
        <time>2014-05-20T12:52:05Z</time>
      </trkpt>
      <trkpt lat="49.40526" lon="0.20259">
        <ele>111</ele>
        <time>2014-05-20T12:52:12Z</time>
      </trkpt>
      <trkpt lat="49.40527" lon="0.20254">
        <ele>111</ele>
        <time>2014-05-20T12:52:14Z</time>
      </trkpt>
      <trkpt lat="49.40526" lon="0.20251">
        <ele>111</ele>
        <time>2014-05-20T12:52:16Z</time>
      </trkpt>
      <trkpt lat="49.40522" lon="0.20216">
        <ele>110</ele>
        <time>2014-05-20T12:52:29Z</time>
      </trkpt>
      <trkpt lat="49.40521" lon="0.20178">
        <ele>108</ele>
        <time>2014-05-20T12:52:41Z</time>
      </trkpt>
      <trkpt lat="49.4052" lon="0.20173">
        <ele>107</ele>
        <time>2014-05-20T12:52:43Z</time>
      </trkpt>
      <trkpt lat="49.40518" lon="0.20134">
        <ele>105</ele>
        <time>2014-05-20T12:52:57Z</time>
      </trkpt>
      <trkpt lat="49.40515" lon="0.20128">
        <ele>104</ele>
        <time>2014-05-20T12:53:00Z</time>
      </trkpt>
      <trkpt lat="49.4051" lon="0.20071">
        <ele>104</ele>
        <time>2014-05-20T12:53:23Z</time>
      </trkpt>
      <trkpt lat="49.40505" lon="0.20034">
        <ele>103</ele>
        <time>2014-05-20T12:53:41Z</time>
      </trkpt>
      <trkpt lat="49.40504" lon="0.2003">
        <ele>104</ele>
        <time>2014-05-20T12:53:43Z</time>
      </trkpt>
      <trkpt lat="49.40501" lon="0.20002">
        <ele>103</ele>
        <time>2014-05-20T12:53:52Z</time>
      </trkpt>
      <trkpt lat="49.40506" lon="0.19981">
        <ele>103</ele>
        <time>2014-05-20T12:54:01Z</time>
      </trkpt>
      <trkpt lat="49.40511" lon="0.19978">
        <ele>103</ele>
        <time>2014-05-20T12:54:04Z</time>
      </trkpt>
      <trkpt lat="49.4053" lon="0.19968">
        <ele>103</ele>
        <time>2014-05-20T12:54:16Z</time>
      </trkpt>
      <trkpt lat="49.40533" lon="0.19967">
        <ele>104</ele>
        <time>2014-05-20T12:54:18Z</time>
      </trkpt>
      <trkpt lat="49.40553" lon="0.19956">
        <ele>106</ele>
        <time>2014-05-20T12:54:32Z</time>
      </trkpt>
      <trkpt lat="49.40559" lon="0.19949">
        <ele>105</ele>
        <time>2014-05-20T12:54:37Z</time>
      </trkpt>
      <trkpt lat="49.40581" lon="0.1994">
        <ele>105</ele>
        <time>2014-05-20T12:54:49Z</time>
      </trkpt>
      <trkpt lat="49.40587" lon="0.19939">
        <ele>108</ele>
        <time>2014-05-20T12:54:53Z</time>
      </trkpt>
      <trkpt lat="49.40595" lon="0.19934">
        <ele>108</ele>
        <time>2014-05-20T12:55:01Z</time>
      </trkpt>
      <trkpt lat="49.40604" lon="0.19928">
        <ele>110</ele>
        <time>2014-05-20T12:55:08Z</time>
      </trkpt>
      <trkpt lat="49.4061" lon="0.19924">
        <ele>108</ele>
        <time>2014-05-20T12:55:11Z</time>
      </trkpt>
      <trkpt lat="49.40623" lon="0.19912">
        <ele>110</ele>
        <time>2014-05-20T12:55:22Z</time>
      </trkpt>
      <trkpt lat="49.40633" lon="0.19881">
        <ele>109</ele>
        <time>2014-05-20T12:55:30Z</time>
      </trkpt>
      <trkpt lat="49.40631" lon="0.19851">
        <ele>110</ele>
        <time>2014-05-20T12:55:43Z</time>
      </trkpt>
      <trkpt lat="49.40631" lon="0.19841">
        <ele>112</ele>
        <time>2014-05-20T12:55:47Z</time>
      </trkpt>
      <trkpt lat="49.40627" lon="0.19815">
        <ele>111</ele>
        <time>2014-05-20T12:55:59Z</time>
      </trkpt>
      <trkpt lat="49.40622" lon="0.19795">
        <ele>115</ele>
        <time>2014-05-20T12:56:10Z</time>
      </trkpt>
      <trkpt lat="49.40623" lon="0.19761">
        <ele>115</ele>
        <time>2014-05-20T12:56:22Z</time>
      </trkpt>
      <trkpt lat="49.40621" lon="0.19745">
        <ele>116</ele>
        <time>2014-05-20T12:56:35Z</time>
      </trkpt>
      <trkpt lat="49.40619" lon="0.19724">
        <ele>118</ele>
        <time>2014-05-20T12:56:43Z</time>
      </trkpt>
      <trkpt lat="49.40622" lon="0.19671">
        <ele>113</ele>
        <time>2014-05-20T12:56:57Z</time>
      </trkpt>
      <trkpt lat="49.40623" lon="0.19666">
        <ele>114</ele>
        <time>2014-05-20T12:56:59Z</time>
      </trkpt>
      <trkpt lat="49.4062" lon="0.1966">
        <ele>114</ele>
        <time>2014-05-20T12:57:03Z</time>
      </trkpt>
      <trkpt lat="49.40621" lon="0.19633">
        <ele>114</ele>
        <time>2014-05-20T12:57:18Z</time>
      </trkpt>
      <trkpt lat="49.40624" lon="0.19615">
        <ele>114</ele>
        <time>2014-05-20T12:57:26Z</time>
      </trkpt>
      <trkpt lat="49.40624" lon="0.19605">
        <ele>114</ele>
        <time>2014-05-20T12:57:30Z</time>
      </trkpt>
      <trkpt lat="49.4063" lon="0.19563">
        <ele>115</ele>
        <time>2014-05-20T12:57:47Z</time>
      </trkpt>
      <trkpt lat="49.40635" lon="0.19539">
        <ele>115</ele>
        <time>2014-05-20T12:57:59Z</time>
      </trkpt>
      <trkpt lat="49.40638" lon="0.19478">
        <ele>115</ele>
        <time>2014-05-20T12:58:14Z</time>
      </trkpt>
      <trkpt lat="49.40636" lon="0.19469">
        <ele>115</ele>
        <time>2014-05-20T12:58:18Z</time>
      </trkpt>
      <trkpt lat="49.4063" lon="0.19446">
        <ele>117</ele>
        <time>2014-05-20T12:58:31Z</time>
      </trkpt>
      <trkpt lat="49.40631" lon="0.19441">
        <ele>117</ele>
        <time>2014-05-20T12:58:34Z</time>
      </trkpt>
      <trkpt lat="49.40649" lon="0.19419">
        <ele>115</ele>
        <time>2014-05-20T12:58:51Z</time>
      </trkpt>
      <trkpt lat="49.40656" lon="0.1942">
        <ele>111</ele>
        <time>2014-05-20T12:59:09Z</time>
      </trkpt>
      <trkpt lat="49.40663" lon="0.19418">
        <ele>113</ele>
        <time>2014-05-20T12:59:14Z</time>
      </trkpt>
      <trkpt lat="49.4068" lon="0.19415">
        <ele>113</ele>
        <time>2014-05-20T12:59:31Z</time>
      </trkpt>
      <trkpt lat="49.40687" lon="0.19411">
        <ele>113</ele>
        <time>2014-05-20T12:59:39Z</time>
      </trkpt>
      <trkpt lat="49.40691" lon="0.19399">
        <ele>114</ele>
        <time>2014-05-20T12:59:53Z</time>
      </trkpt>
      <trkpt lat="49.40693" lon="0.19398">
        <ele>115</ele>
        <time>2014-05-20T13:00:07Z</time>
      </trkpt>
      <trkpt lat="49.40698" lon="0.19388">
        <ele>114</ele>
        <time>2014-05-20T13:00:20Z</time>
      </trkpt>
      <trkpt lat="49.40699" lon="0.19382">
        <ele>113</ele>
        <time>2014-05-20T13:00:41Z</time>
      </trkpt>
      <trkpt lat="49.40699" lon="0.19379">
        <ele>112</ele>
        <time>2014-05-20T13:01:07Z</time>
      </trkpt>
      <trkpt lat="49.40698" lon="0.19379">
        <ele>113</ele>
        <time>2014-05-20T13:01:37Z</time>
      </trkpt>
      <trkpt lat="49.40698" lon="0.19371">
        <ele>114</ele>
        <time>2014-05-20T13:03:33Z</time>
      </trkpt>
      <trkpt lat="49.40698" lon="0.19362">
        <ele>113</ele>
        <time>2014-05-20T13:03:45Z</time>
      </trkpt>
      <trkpt lat="49.407" lon="0.19356">
        <ele>113</ele>
        <time>2014-05-20T13:03:58Z</time>
      </trkpt>
      <trkpt lat="49.40706" lon="0.19341">
        <ele>113</ele>
        <time>2014-05-20T13:04:10Z</time>
      </trkpt>
      <trkpt lat="49.4071" lon="0.19337">
        <ele>111</ele>
        <time>2014-05-20T13:04:28Z</time>
      </trkpt>
      <trkpt lat="49.40711" lon="0.19337">
        <ele>115</ele>
        <time>2014-05-20T13:04:43Z</time>
      </trkpt>
      <trkpt lat="49.4071" lon="0.19336">
        <ele>111</ele>
        <time>2014-05-20T13:05:43Z</time>
      </trkpt>
      <trkpt lat="49.40713" lon="0.19332">
        <ele>112</ele>
        <time>2014-05-20T13:07:31Z</time>
      </trkpt>
      <trkpt lat="49.40714" lon="0.19333">
        <ele>112</ele>
        <time>2014-05-20T13:07:40Z</time>
      </trkpt>
      <trkpt lat="49.40715" lon="0.19334">
        <ele>112</ele>
        <time>2014-05-20T13:07:42Z</time>
      </trkpt>
      <trkpt lat="49.40716" lon="0.19336">
        <ele>113</ele>
        <time>2014-05-20T13:07:44Z</time>
      </trkpt>
      <trkpt lat="49.4072" lon="0.19337">
        <ele>113</ele>
        <time>2014-05-20T13:07:46Z</time>
      </trkpt>
      <trkpt lat="49.40721" lon="0.19344">
        <ele>114</ele>
        <time>2014-05-20T13:07:50Z</time>
      </trkpt>
      <trkpt lat="49.40743" lon="0.19366">
        <ele>115</ele>
        <time>2014-05-20T13:08:13Z</time>
      </trkpt>
      <trkpt lat="49.40745" lon="0.19369">
        <ele>115</ele>
        <time>2014-05-20T13:08:16Z</time>
      </trkpt>
      <trkpt lat="49.40751" lon="0.19369">
        <ele>115</ele>
        <time>2014-05-20T13:08:20Z</time>
      </trkpt>
      <trkpt lat="49.40768" lon="0.19363">
        <ele>120</ele>
        <time>2014-05-20T13:08:35Z</time>
      </trkpt>
      <trkpt lat="49.40774" lon="0.19359">
        <ele>122</ele>
        <time>2014-05-20T13:08:42Z</time>
      </trkpt>
      <trkpt lat="49.40789" lon="0.19352">
        <ele>122</ele>
        <time>2014-05-20T13:08:53Z</time>
      </trkpt>
      <trkpt lat="49.40808" lon="0.19341">
        <ele>123</ele>
        <time>2014-05-20T13:09:07Z</time>
      </trkpt>
      <trkpt lat="49.40819" lon="0.19332">
        <ele>123</ele>
        <time>2014-05-20T13:09:19Z</time>
      </trkpt>
      <trkpt lat="49.40839" lon="0.19317">
        <ele>123</ele>
        <time>2014-05-20T13:09:35Z</time>
      </trkpt>
      <trkpt lat="49.40857" lon="0.1931">
        <ele>123</ele>
        <time>2014-05-20T13:09:48Z</time>
      </trkpt>
      <trkpt lat="49.40877" lon="0.19307">
        <ele>124</ele>
        <time>2014-05-20T13:10:01Z</time>
      </trkpt>
      <trkpt lat="49.40881" lon="0.19308">
        <ele>123</ele>
        <time>2014-05-20T13:10:04Z</time>
      </trkpt>
      <trkpt lat="49.40891" lon="0.19308">
        <ele>123</ele>
        <time>2014-05-20T13:10:11Z</time>
      </trkpt>
      <trkpt lat="49.40903" lon="0.19307">
        <ele>125</ele>
        <time>2014-05-20T13:10:22Z</time>
      </trkpt>
      <trkpt lat="49.40921" lon="0.19298">
        <ele>124</ele>
        <time>2014-05-20T13:10:36Z</time>
      </trkpt>
      <trkpt lat="49.40927" lon="0.19293">
        <ele>125</ele>
        <time>2014-05-20T13:10:40Z</time>
      </trkpt>
      <trkpt lat="49.40927" lon="0.19288">
        <ele>126</ele>
        <time>2014-05-20T13:10:42Z</time>
      </trkpt>
      <trkpt lat="49.4094" lon="0.19281">
        <ele>126</ele>
        <time>2014-05-20T13:10:52Z</time>
      </trkpt>
      <trkpt lat="49.40947" lon="0.19273">
        <ele>126</ele>
        <time>2014-05-20T13:10:59Z</time>
      </trkpt>
      <trkpt lat="49.40952" lon="0.19268">
        <ele>126</ele>
        <time>2014-05-20T13:11:03Z</time>
      </trkpt>
      <trkpt lat="49.40955" lon="0.19263">
        <ele>125</ele>
        <time>2014-05-20T13:11:09Z</time>
      </trkpt>
      <trkpt lat="49.40967" lon="0.1925">
        <ele>123</ele>
        <time>2014-05-20T13:11:23Z</time>
      </trkpt>
      <trkpt lat="49.40969" lon="0.19249">
        <ele>123</ele>
        <time>2014-05-20T13:11:25Z</time>
      </trkpt>
      <trkpt lat="49.40981" lon="0.19235">
        <ele>125</ele>
        <time>2014-05-20T13:11:37Z</time>
      </trkpt>
      <trkpt lat="49.40981" lon="0.19233">
        <ele>125</ele>
        <time>2014-05-20T13:11:38Z</time>
      </trkpt>
      <trkpt lat="49.40989" lon="0.19215">
        <ele>125</ele>
        <time>2014-05-20T13:11:50Z</time>
      </trkpt>
      <trkpt lat="49.40993" lon="0.19216">
        <ele>122</ele>
        <time>2014-05-20T13:12:18Z</time>
      </trkpt>
      <trkpt lat="49.40993" lon="0.19215">
        <ele>120</ele>
        <time>2014-05-20T13:12:30Z</time>
      </trkpt>
      <trkpt lat="49.40984" lon="0.19211">
        <ele>120</ele>
        <time>2014-05-20T13:12:51Z</time>
      </trkpt>
      <trkpt lat="49.40981" lon="0.19212">
        <ele>117</ele>
        <time>2014-05-20T13:13:04Z</time>
      </trkpt>
      <trkpt lat="49.40982" lon="0.19217">
        <ele>118</ele>
        <time>2014-05-20T13:13:49Z</time>
      </trkpt>
      <trkpt lat="49.40987" lon="0.19221">
        <ele>122</ele>
        <time>2014-05-20T13:13:59Z</time>
      </trkpt>
      <trkpt lat="49.40995" lon="0.19217">
        <ele>122</ele>
        <time>2014-05-20T13:14:05Z</time>
      </trkpt>
      <trkpt lat="49.40999" lon="0.19214">
        <ele>121</ele>
        <time>2014-05-20T13:14:08Z</time>
      </trkpt>
      <trkpt lat="49.41007" lon="0.19204">
        <ele>120</ele>
        <time>2014-05-20T13:14:17Z</time>
      </trkpt>
      <trkpt lat="49.41018" lon="0.19196">
        <ele>122</ele>
        <time>2014-05-20T13:14:29Z</time>
      </trkpt>
      <trkpt lat="49.41028" lon="0.19191">
        <ele>121</ele>
        <time>2014-05-20T13:14:52Z</time>
      </trkpt>
      <trkpt lat="49.4103" lon="0.19189">
        <ele>122</ele>
        <time>2014-05-20T13:14:56Z</time>
      </trkpt>
      <trkpt lat="49.41044" lon="0.19186">
        <ele>121</ele>
        <time>2014-05-20T13:15:09Z</time>
      </trkpt>
      <trkpt lat="49.41048" lon="0.19185">
        <ele>122</ele>
        <time>2014-05-20T13:15:14Z</time>
      </trkpt>
      <trkpt lat="49.41067" lon="0.19171">
        <ele>124</ele>
        <time>2014-05-20T13:15:29Z</time>
      </trkpt>
      <trkpt lat="49.41076" lon="0.19166">
        <ele>125</ele>
        <time>2014-05-20T13:15:36Z</time>
      </trkpt>
      <trkpt lat="49.41091" lon="0.19143">
        <ele>126</ele>
        <time>2014-05-20T13:15:55Z</time>
      </trkpt>
      <trkpt lat="49.41109" lon="0.19123">
        <ele>124</ele>
        <time>2014-05-20T13:16:08Z</time>
      </trkpt>
      <trkpt lat="49.41114" lon="0.1913">
        <ele>124</ele>
        <time>2014-05-20T13:16:13Z</time>
      </trkpt>
      <trkpt lat="49.41126" lon="0.19146">
        <ele>123</ele>
        <time>2014-05-20T13:16:28Z</time>
      </trkpt>
      <trkpt lat="49.41128" lon="0.1915">
        <ele>123</ele>
        <time>2014-05-20T13:16:30Z</time>
      </trkpt>
      <trkpt lat="49.41136" lon="0.19158">
        <ele>123</ele>
        <time>2014-05-20T13:16:37Z</time>
      </trkpt>
      <trkpt lat="49.41146" lon="0.19184">
        <ele>120</ele>
        <time>2014-05-20T13:16:50Z</time>
      </trkpt>
      <trkpt lat="49.41158" lon="0.19214">
        <ele>116</ele>
        <time>2014-05-20T13:17:05Z</time>
      </trkpt>
      <trkpt lat="49.4116" lon="0.19217">
        <ele>115</ele>
        <time>2014-05-20T13:17:07Z</time>
      </trkpt>
      <trkpt lat="49.41168" lon="0.19229">
        <ele>115</ele>
        <time>2014-05-20T13:17:15Z</time>
      </trkpt>
      <trkpt lat="49.41179" lon="0.19242">
        <ele>112</ele>
        <time>2014-05-20T13:17:29Z</time>
      </trkpt>
      <trkpt lat="49.41178" lon="0.19237">
        <ele>109</ele>
        <time>2014-05-20T13:17:45Z</time>
      </trkpt>
      <trkpt lat="49.41178" lon="0.19237">
        <ele>110</ele>
        <time>2014-05-20T13:18:31Z</time>
      </trkpt>
      <trkpt lat="49.41177" lon="0.19243">
        <ele>109</ele>
        <time>2014-05-20T13:18:46Z</time>
      </trkpt>
      <trkpt lat="49.41178" lon="0.19243">
        <ele>107</ele>
        <time>2014-05-20T13:19:03Z</time>
      </trkpt>
      <trkpt lat="49.41169" lon="0.19229">
        <ele>112</ele>
        <time>2014-05-20T13:19:17Z</time>
      </trkpt>
      <trkpt lat="49.41163" lon="0.1921">
        <ele>118</ele>
        <time>2014-05-20T13:19:29Z</time>
      </trkpt>
      <trkpt lat="49.41153" lon="0.19199">
        <ele>118</ele>
        <time>2014-05-20T13:19:41Z</time>
      </trkpt>
      <trkpt lat="49.41147" lon="0.19185">
        <ele>118</ele>
        <time>2014-05-20T13:20:01Z</time>
      </trkpt>
      <trkpt lat="49.41146" lon="0.19177">
        <ele>119</ele>
        <time>2014-05-20T13:20:04Z</time>
      </trkpt>
      <trkpt lat="49.41139" lon="0.19161">
        <ele>122</ele>
        <time>2014-05-20T13:20:13Z</time>
      </trkpt>
      <trkpt lat="49.41135" lon="0.19137">
        <ele>125</ele>
        <time>2014-05-20T13:20:26Z</time>
      </trkpt>
      <trkpt lat="49.41133" lon="0.19133">
        <ele>126</ele>
        <time>2014-05-20T13:20:42Z</time>
      </trkpt>
      <trkpt lat="49.41139" lon="0.19131">
        <ele>126</ele>
        <time>2014-05-20T13:20:53Z</time>
      </trkpt>
      <trkpt lat="49.4115" lon="0.19136">
        <ele>127</ele>
        <time>2014-05-20T13:21:03Z</time>
      </trkpt>
      <trkpt lat="49.41163" lon="0.19139">
        <ele>129</ele>
        <time>2014-05-20T13:21:11Z</time>
      </trkpt>
      <trkpt lat="49.41176" lon="0.19151">
        <ele>129</ele>
        <time>2014-05-20T13:21:25Z</time>
      </trkpt>
      <trkpt lat="49.41195" lon="0.19164">
        <ele>129</ele>
        <time>2014-05-20T13:21:41Z</time>
      </trkpt>
      <trkpt lat="49.41202" lon="0.19166">
        <ele>128</ele>
        <time>2014-05-20T13:21:50Z</time>
      </trkpt>
      <trkpt lat="49.41204" lon="0.1917">
        <ele>128</ele>
        <time>2014-05-20T13:21:52Z</time>
      </trkpt>
      <trkpt lat="49.41217" lon="0.19189">
        <ele>127</ele>
        <time>2014-05-20T13:22:10Z</time>
      </trkpt>
      <trkpt lat="49.41232" lon="0.19184">
        <ele>123</ele>
        <time>2014-05-20T13:22:33Z</time>
      </trkpt>
      <trkpt lat="49.41246" lon="0.19169">
        <ele>119</ele>
        <time>2014-05-20T13:22:50Z</time>
      </trkpt>
      <trkpt lat="49.41249" lon="0.19154">
        <ele>116</ele>
        <time>2014-05-20T13:23:12Z</time>
      </trkpt>
      <trkpt lat="49.41246" lon="0.19134">
        <ele>113</ele>
        <time>2014-05-20T13:23:32Z</time>
      </trkpt>
      <trkpt lat="49.41238" lon="0.19121">
        <ele>111</ele>
        <time>2014-05-20T13:23:49Z</time>
      </trkpt>
      <trkpt lat="49.41228" lon="0.19097">
        <ele>109</ele>
        <time>2014-05-20T13:24:08Z</time>
      </trkpt>
      <trkpt lat="49.41226" lon="0.19078">
        <ele>105</ele>
        <time>2014-05-20T13:24:23Z</time>
      </trkpt>
      <trkpt lat="49.41222" lon="0.19063">
        <ele>101</ele>
        <time>2014-05-20T13:24:36Z</time>
      </trkpt>
      <trkpt lat="49.41225" lon="0.19059">
        <ele>101</ele>
        <time>2014-05-20T13:24:43Z</time>
      </trkpt>
      <trkpt lat="49.41215" lon="0.19044">
        <ele>96</ele>
        <time>2014-05-20T13:25:00Z</time>
      </trkpt>
      <trkpt lat="49.41211" lon="0.19031">
        <ele>88</ele>
        <time>2014-05-20T13:25:14Z</time>
      </trkpt>
      <trkpt lat="49.41209" lon="0.19019">
        <ele>84</ele>
        <time>2014-05-20T13:25:31Z</time>
      </trkpt>
      <trkpt lat="49.41201" lon="0.19003">
        <ele>81</ele>
        <time>2014-05-20T13:25:48Z</time>
      </trkpt>
      <trkpt lat="49.41195" lon="0.18986">
        <ele>84</ele>
        <time>2014-05-20T13:26:06Z</time>
      </trkpt>
      <trkpt lat="49.41199" lon="0.18964">
        <ele>84</ele>
        <time>2014-05-20T13:26:18Z</time>
      </trkpt>
      <trkpt lat="49.41199" lon="0.18946">
        <ele>83</ele>
        <time>2014-05-20T13:26:28Z</time>
      </trkpt>
      <trkpt lat="49.41193" lon="0.18924">
        <ele>75</ele>
        <time>2014-05-20T13:26:43Z</time>
      </trkpt>
      <trkpt lat="49.41195" lon="0.1892">
        <ele>74</ele>
        <time>2014-05-20T13:26:46Z</time>
      </trkpt>
      <trkpt lat="49.41203" lon="0.18899">
        <ele>70</ele>
        <time>2014-05-20T13:27:01Z</time>
      </trkpt>
      <trkpt lat="49.41216" lon="0.18881">
        <ele>72</ele>
        <time>2014-05-20T13:27:14Z</time>
      </trkpt>
      <trkpt lat="49.41229" lon="0.1886">
        <ele>68</ele>
        <time>2014-05-20T13:27:26Z</time>
      </trkpt>
      <trkpt lat="49.41242" lon="0.1884">
        <ele>60</ele>
        <time>2014-05-20T13:27:39Z</time>
      </trkpt>
      <trkpt lat="49.41254" lon="0.1883">
        <ele>56</ele>
        <time>2014-05-20T13:27:50Z</time>
      </trkpt>
      <trkpt lat="49.41257" lon="0.18822">
        <ele>51</ele>
        <time>2014-05-20T13:28:01Z</time>
      </trkpt>
      <trkpt lat="49.4126" lon="0.18816">
        <ele>36</ele>
        <time>2014-05-20T13:28:15Z</time>
      </trkpt>
      <trkpt lat="49.41272" lon="0.18801">
        <ele>32</ele>
        <time>2014-05-20T13:28:27Z</time>
      </trkpt>
      <trkpt lat="49.41285" lon="0.18782">
        <ele>29</ele>
        <time>2014-05-20T13:28:42Z</time>
      </trkpt>
      <trkpt lat="49.41288" lon="0.18778">
        <ele>28</ele>
        <time>2014-05-20T13:28:45Z</time>
      </trkpt>
      <trkpt lat="49.41306" lon="0.1876">
        <ele>26</ele>
        <time>2014-05-20T13:29:02Z</time>
      </trkpt>
      <trkpt lat="49.41319" lon="0.18745">
        <ele>25</ele>
        <time>2014-05-20T13:29:14Z</time>
      </trkpt>
      <trkpt lat="49.41345" lon="0.18711">
        <ele>20</ele>
        <time>2014-05-20T13:29:40Z</time>
      </trkpt>
      <trkpt lat="49.41349" lon="0.18705">
        <ele>19</ele>
        <time>2014-05-20T13:30:00Z</time>
      </trkpt>
      <trkpt lat="49.41351" lon="0.18701">
        <ele>18</ele>
        <time>2014-05-20T13:30:17Z</time>
      </trkpt>
      <trkpt lat="49.41351" lon="0.187">
        <ele>18</ele>
        <time>2014-05-20T13:30:19Z</time>
      </trkpt>
      <trkpt lat="49.41352" lon="0.18694">
        <ele>18</ele>
        <time>2014-05-20T13:30:22Z</time>
      </trkpt>
      <trkpt lat="49.41346" lon="0.18681">
        <ele>18</ele>
        <time>2014-05-20T13:30:34Z</time>
      </trkpt>
      <trkpt lat="49.41337" lon="0.18661">
        <ele>20</ele>
        <time>2014-05-20T13:30:50Z</time>
      </trkpt>
      <trkpt lat="49.41335" lon="0.18657">
        <ele>21</ele>
        <time>2014-05-20T13:30:53Z</time>
      </trkpt>
      <trkpt lat="49.41319" lon="0.18627">
        <ele>22</ele>
        <time>2014-05-20T13:31:11Z</time>
      </trkpt>
      <trkpt lat="49.41308" lon="0.1861">
        <ele>18</ele>
        <time>2014-05-20T13:31:21Z</time>
      </trkpt>
      <trkpt lat="49.41299" lon="0.18591">
        <ele>19</ele>
        <time>2014-05-20T13:31:33Z</time>
      </trkpt>
      <trkpt lat="49.41298" lon="0.18583">
        <ele>19</ele>
        <time>2014-05-20T13:31:37Z</time>
      </trkpt>
      <trkpt lat="49.413" lon="0.1858">
        <ele>19</ele>
        <time>2014-05-20T13:31:39Z</time>
      </trkpt>
      <trkpt lat="49.41311" lon="0.18574">
        <ele>22</ele>
        <time>2014-05-20T13:31:54Z</time>
      </trkpt>
      <trkpt lat="49.4133" lon="0.18535">
        <ele>24</ele>
        <time>2014-05-20T13:32:09Z</time>
      </trkpt>
      <trkpt lat="49.41346" lon="0.18519">
        <ele>25</ele>
        <time>2014-05-20T13:32:20Z</time>
      </trkpt>
      <trkpt lat="49.41352" lon="0.18514">
        <ele>26</ele>
        <time>2014-05-20T13:32:26Z</time>
      </trkpt>
      <trkpt lat="49.41359" lon="0.18495">
        <ele>23</ele>
        <time>2014-05-20T13:32:35Z</time>
      </trkpt>
      <trkpt lat="49.41363" lon="0.18492">
        <ele>22</ele>
        <time>2014-05-20T13:32:39Z</time>
      </trkpt>
      <trkpt lat="49.4137" lon="0.18466">
        <ele>22</ele>
        <time>2014-05-20T13:32:51Z</time>
      </trkpt>
      <trkpt lat="49.41374" lon="0.18448">
        <ele>24</ele>
        <time>2014-05-20T13:32:59Z</time>
      </trkpt>
      <trkpt lat="49.41379" lon="0.18429">
        <ele>20</ele>
        <time>2014-05-20T13:33:08Z</time>
      </trkpt>
      <trkpt lat="49.41392" lon="0.18416">
        <ele>13</ele>
        <time>2014-05-20T13:33:22Z</time>
      </trkpt>
      <trkpt lat="49.41404" lon="0.18398">
        <ele>9</ele>
        <time>2014-05-20T13:33:35Z</time>
      </trkpt>
      <trkpt lat="49.41404" lon="0.18398">
        <ele>9</ele>
        <time>2014-05-20T13:33:52Z</time>
      </trkpt>
      <trkpt lat="49.41417" lon="0.18389">
        <ele>8</ele>
        <time>2014-05-20T13:34:09Z</time>
      </trkpt>
      <trkpt lat="49.41439" lon="0.18413">
        <ele>7</ele>
        <time>2014-05-20T13:34:29Z</time>
      </trkpt>
      <trkpt lat="49.41461" lon="0.18441">
        <ele>6</ele>
        <time>2014-05-20T13:34:49Z</time>
      </trkpt>
      <trkpt lat="49.41491" lon="0.18481">
        <ele>5</ele>
        <time>2014-05-20T13:35:17Z</time>
      </trkpt>
      <trkpt lat="49.41498" lon="0.1849">
        <ele>4</ele>
        <time>2014-05-20T13:35:24Z</time>
      </trkpt>
      <trkpt lat="49.41515" lon="0.185">
        <ele>4</ele>
        <time>2014-05-20T13:35:38Z</time>
      </trkpt>
      <trkpt lat="49.41521" lon="0.18493">
        <ele>4</ele>
        <time>2014-05-20T13:35:44Z</time>
      </trkpt>
      <trkpt lat="49.41525" lon="0.1849">
        <ele>3</ele>
        <time>2014-05-20T13:35:47Z</time>
      </trkpt>
      <trkpt lat="49.41532" lon="0.18477">
        <ele>3</ele>
        <time>2014-05-20T13:35:58Z</time>
      </trkpt>
      <trkpt lat="49.41551" lon="0.18459">
        <ele>1</ele>
        <time>2014-05-20T13:36:13Z</time>
      </trkpt>
      <trkpt lat="49.41556" lon="0.18459">
        <ele>4</ele>
        <time>2014-05-20T13:36:17Z</time>
      </trkpt>
      <trkpt lat="49.41585" lon="0.18481">
        <ele>-3</ele>
        <time>2014-05-20T13:36:42Z</time>
      </trkpt>
      <trkpt lat="49.41597" lon="0.18488">
        <ele>-2</ele>
        <time>2014-05-20T13:37:01Z</time>
      </trkpt>
      <trkpt lat="49.4161" lon="0.18503">
        <ele>-3</ele>
        <time>2014-05-20T13:37:18Z</time>
      </trkpt>
      <trkpt lat="49.41621" lon="0.1854">
        <ele>-3</ele>
        <time>2014-05-20T13:37:35Z</time>
      </trkpt>
      <trkpt lat="49.41635" lon="0.18617">
        <ele>-3</ele>
        <time>2014-05-20T13:38:08Z</time>
      </trkpt>
      <trkpt lat="49.4165" lon="0.18673">
        <ele>-4</ele>
        <time>2014-05-20T13:38:34Z</time>
      </trkpt>
      <trkpt lat="49.41674" lon="0.18727">
        <ele>-5</ele>
        <time>2014-05-20T13:39:01Z</time>
      </trkpt>
      <trkpt lat="49.41679" lon="0.18739">
        <ele>-4</ele>
        <time>2014-05-20T13:39:16Z</time>
      </trkpt>
      <trkpt lat="49.41693" lon="0.1878">
        <ele>-4</ele>
        <time>2014-05-20T13:39:37Z</time>
      </trkpt>
      <trkpt lat="49.41712" lon="0.18837">
        <ele>-3</ele>
        <time>2014-05-20T13:40:03Z</time>
      </trkpt>
      <trkpt lat="49.41727" lon="0.18911">
        <ele>-3</ele>
        <time>2014-05-20T13:40:36Z</time>
      </trkpt>
      <trkpt lat="49.41732" lon="0.18933">
        <ele>-3</ele>
        <time>2014-05-20T13:40:45Z</time>
      </trkpt>
      <trkpt lat="49.41734" lon="0.18935">
        <ele>-3</ele>
        <time>2014-05-20T13:40:47Z</time>
      </trkpt>
      <trkpt lat="49.41739" lon="0.1896">
        <ele>-4</ele>
        <time>2014-05-20T13:41:02Z</time>
      </trkpt>
      <trkpt lat="49.4176" lon="0.19014">
        <ele>-4</ele>
        <time>2014-05-20T13:41:30Z</time>
      </trkpt>
      <trkpt lat="49.41777" lon="0.19056">
        <ele>-4</ele>
        <time>2014-05-20T13:41:55Z</time>
      </trkpt>
      <trkpt lat="49.41779" lon="0.19063">
        <ele>-4</ele>
        <time>2014-05-20T13:42:12Z</time>
      </trkpt>
      <trkpt lat="49.41791" lon="0.19098">
        <ele>-3</ele>
        <time>2014-05-20T13:42:31Z</time>
      </trkpt>
      <trkpt lat="49.41809" lon="0.19149">
        <ele>-3</ele>
        <time>2014-05-20T13:42:57Z</time>
      </trkpt>
      <trkpt lat="49.41819" lon="0.19168">
        <ele>-4</ele>
        <time>2014-05-20T13:43:08Z</time>
      </trkpt>
      <trkpt lat="49.41834" lon="0.19206">
        <ele>-3</ele>
        <time>2014-05-20T13:43:29Z</time>
      </trkpt>
      <trkpt lat="49.41844" lon="0.19237">
        <ele>-4</ele>
        <time>2014-05-20T13:43:45Z</time>
      </trkpt>
      <trkpt lat="49.41867" lon="0.19296">
        <ele>-4</ele>
        <time>2014-05-20T13:44:14Z</time>
      </trkpt>
      <trkpt lat="49.41892" lon="0.19361">
        <ele>-4</ele>
        <time>2014-05-20T13:44:45Z</time>
      </trkpt>
      <trkpt lat="49.41918" lon="0.19428">
        <ele>-4</ele>
        <time>2014-05-20T13:45:18Z</time>
      </trkpt>
      <trkpt lat="49.41933" lon="0.19472">
        <ele>-4</ele>
        <time>2014-05-20T13:45:45Z</time>
      </trkpt>
      <trkpt lat="49.41936" lon="0.19468">
        <ele>-3</ele>
        <time>2014-05-20T13:46:00Z</time>
      </trkpt>
      <trkpt lat="49.41935" lon="0.19467">
        <ele>-3</ele>
        <time>2014-05-20T13:46:20Z</time>
      </trkpt>
      <trkpt lat="49.41939" lon="0.19486">
        <ele>-3</ele>
        <time>2014-05-20T13:46:31Z</time>
      </trkpt>
      <trkpt lat="49.41939" lon="0.195">
        <ele>-3</ele>
        <time>2014-05-20T13:46:38Z</time>
      </trkpt>
      <trkpt lat="49.41952" lon="0.19535">
        <ele>-3</ele>
        <time>2014-05-20T13:46:58Z</time>
      </trkpt>
      <trkpt lat="49.41963" lon="0.19579">
        <ele>-4</ele>
        <time>2014-05-20T13:47:21Z</time>
      </trkpt>
      <trkpt lat="49.41966" lon="0.19633">
        <ele>-5</ele>
        <time>2014-05-20T13:47:46Z</time>
      </trkpt>
      <trkpt lat="49.41965" lon="0.19656">
        <ele>-4</ele>
        <time>2014-05-20T13:48:06Z</time>
      </trkpt>
      <trkpt lat="49.41963" lon="0.19682">
        <ele>-4</ele>
        <time>2014-05-20T13:48:27Z</time>
      </trkpt>
      <trkpt lat="49.41978" lon="0.19731">
        <ele>-3</ele>
        <time>2014-05-20T13:48:52Z</time>
      </trkpt>
      <trkpt lat="49.41992" lon="0.19778">
        <ele>-3</ele>
        <time>2014-05-20T13:49:15Z</time>
      </trkpt>
      <trkpt lat="49.41991" lon="0.19786">
        <ele>-3</ele>
        <time>2014-05-20T13:49:19Z</time>
      </trkpt>
      <trkpt lat="49.41999" lon="0.19813">
        <ele>-2</ele>
        <time>2014-05-20T13:49:33Z</time>
      </trkpt>
      <trkpt lat="49.42016" lon="0.19865">
        <ele>-2</ele>
        <time>2014-05-20T13:50:01Z</time>
      </trkpt>
      <trkpt lat="49.42024" lon="0.19895">
        <ele>-2</ele>
        <time>2014-05-20T13:50:18Z</time>
      </trkpt>
      <trkpt lat="49.42042" lon="0.19949">
        <ele>-2</ele>
        <time>2014-05-20T13:50:46Z</time>
      </trkpt>
      <trkpt lat="49.42066" lon="0.20009">
        <ele>-3</ele>
        <time>2014-05-20T13:51:17Z</time>
      </trkpt>
      <trkpt lat="49.42084" lon="0.20058">
        <ele>-2</ele>
        <time>2014-05-20T13:51:41Z</time>
      </trkpt>
      <trkpt lat="49.4209" lon="0.20071">
        <ele>-2</ele>
        <time>2014-05-20T13:51:48Z</time>
      </trkpt>
      <trkpt lat="49.42103" lon="0.20109">
        <ele>-3</ele>
        <time>2014-05-20T13:52:09Z</time>
      </trkpt>
      <trkpt lat="49.42117" lon="0.2017">
        <ele>-3</ele>
        <time>2014-05-20T13:52:39Z</time>
      </trkpt>
      <trkpt lat="49.42128" lon="0.20197">
        <ele>-3</ele>
        <time>2014-05-20T13:52:58Z</time>
      </trkpt>
      <trkpt lat="49.42147" lon="0.20248">
        <ele>-4</ele>
        <time>2014-05-20T13:53:24Z</time>
      </trkpt>
      <trkpt lat="49.42164" lon="0.20295">
        <ele>-3</ele>
        <time>2014-05-20T13:53:48Z</time>
      </trkpt>
      <trkpt lat="49.42182" lon="0.20343">
        <ele>-3</ele>
        <time>2014-05-20T13:54:15Z</time>
      </trkpt>
      <trkpt lat="49.42179" lon="0.20348">
        <ele>-1</ele>
        <time>2014-05-20T13:54:32Z</time>
      </trkpt>
      <trkpt lat="49.42179" lon="0.20349">
        <ele>-1</ele>
        <time>2014-05-20T13:54:56Z</time>
      </trkpt>
      <trkpt lat="49.4219" lon="0.20374">
        <ele>-1</ele>
        <time>2014-05-20T13:55:18Z</time>
      </trkpt>
      <trkpt lat="49.42191" lon="0.20376">
        <ele>-1</ele>
        <time>2014-05-20T13:55:19Z</time>
      </trkpt>
      <trkpt lat="49.42193" lon="0.20382">
        <ele>4.1</ele>
        <time>2014-05-20T13:55:25Z</time>
      </trkpt>
      <trkpt lat="49.42199" lon="0.20394">
        <ele>4.2</ele>
        <time>2014-05-20T13:55:35Z</time>
      </trkpt>
      <trkpt lat="49.42211" lon="0.20424">
        <ele>-1</ele>
        <time>2014-05-20T13:55:55Z</time>
      </trkpt>
      <trkpt lat="49.42224" lon="0.20454">
        <ele>-1</ele>
        <time>2014-05-20T13:56:17Z</time>
      </trkpt>
      <trkpt lat="49.42234" lon="0.20487">
        <ele>-1</ele>
        <time>2014-05-20T13:56:36Z</time>
      </trkpt>
      <trkpt lat="49.42236" lon="0.20492">
        <ele>-1</ele>
        <time>2014-05-20T13:56:39Z</time>
      </trkpt>
      <trkpt lat="49.4224" lon="0.20499">
        <ele>-2</ele>
        <time>2014-05-20T13:56:57Z</time>
      </trkpt>
      <trkpt lat="49.42251" lon="0.20523">
        <ele>-2</ele>
        <time>2014-05-20T13:57:15Z</time>
      </trkpt>
      <trkpt lat="49.42266" lon="0.20555">
        <ele>-2</ele>
        <time>2014-05-20T13:57:35Z</time>
      </trkpt>
      <trkpt lat="49.42277" lon="0.20581">
        <ele>-2</ele>
        <time>2014-05-20T13:57:55Z</time>
      </trkpt>
      <trkpt lat="49.42286" lon="0.20596">
        <ele>-2</ele>
        <time>2014-05-20T13:58:17Z</time>
      </trkpt>
      <trkpt lat="49.42288" lon="0.20598">
        <ele>-2</ele>
        <time>2014-05-20T13:58:19Z</time>
      </trkpt>
      <trkpt lat="49.423" lon="0.20613">
        <ele>-1</ele>
        <time>2014-05-20T13:58:41Z</time>
      </trkpt>
      <trkpt lat="49.42297" lon="0.20622">
        <ele>-1</ele>
        <time>2014-05-20T13:58:56Z</time>
      </trkpt>
      <trkpt lat="49.42298" lon="0.20629">
        <ele>-1</ele>
        <time>2014-05-20T14:00:14Z</time>
      </trkpt>
      <trkpt lat="49.42297" lon="0.20634">
        <ele>2</ele>
        <time>2014-05-20T14:00:28Z</time>
      </trkpt>
      <trkpt lat="49.42297" lon="0.20634">
        <ele>3</ele>
        <time>2014-05-20T14:00:52Z</time>
      </trkpt>
      <trkpt lat="49.42298" lon="0.20635">
        <ele>2</ele>
        <time>2014-05-20T14:01:06Z</time>
      </trkpt>
      <trkpt lat="49.42297" lon="0.20634">
        <ele>2</ele>
        <time>2014-05-20T14:01:29Z</time>
      </trkpt>
      <trkpt lat="49.42298" lon="0.20636">
        <ele>3</ele>
        <time>2014-05-20T14:02:15Z</time>
      </trkpt>
      <trkpt lat="49.42301" lon="0.20635">
        <ele>3</ele>
        <time>2014-05-20T14:02:38Z</time>
      </trkpt>
      <trkpt lat="49.42311" lon="0.20664">
        <ele>2</ele>
        <time>2014-05-20T14:02:59Z</time>
      </trkpt>
      <trkpt lat="49.42317" lon="0.20706">
        <ele>2</ele>
        <time>2014-05-20T14:03:22Z</time>
      </trkpt>
      <trkpt lat="49.42323" lon="0.20736">
        <ele>3</ele>
        <time>2014-05-20T14:03:45Z</time>
      </trkpt>
      <trkpt lat="49.42325" lon="0.20741">
        <ele>4</ele>
        <time>2014-05-20T14:04:00Z</time>
      </trkpt>
      <trkpt lat="49.42333" lon="0.20761">
        <ele>4</ele>
        <time>2014-05-20T14:04:14Z</time>
      </trkpt>
      <trkpt lat="49.42357" lon="0.20822">
        <ele>4</ele>
        <time>2014-05-20T14:04:46Z</time>
      </trkpt>
      <trkpt lat="49.42378" lon="0.20888">
        <ele>5</ele>
        <time>2014-05-20T14:05:19Z</time>
      </trkpt>
      <trkpt lat="49.42379" lon="0.20902">
        <ele>5</ele>
        <time>2014-05-20T14:05:36Z</time>
      </trkpt>
      <trkpt lat="49.42396" lon="0.20955">
        <ele>6</ele>
        <time>2014-05-20T14:06:03Z</time>
      </trkpt>
      <trkpt lat="49.42407" lon="0.21004">
        <ele>7</ele>
        <time>2014-05-20T14:06:28Z</time>
      </trkpt>
      <trkpt lat="49.42426" lon="0.21069">
        <ele>7</ele>
        <time>2014-05-20T14:06:59Z</time>
      </trkpt>
      <trkpt lat="49.42447" lon="0.21138">
        <ele>8</ele>
        <time>2014-05-20T14:07:30Z</time>
      </trkpt>
      <trkpt lat="49.42464" lon="0.21215">
        <ele>8</ele>
        <time>2014-05-20T14:08:03Z</time>
      </trkpt>
      <trkpt lat="49.42477" lon="0.21255">
        <ele>8</ele>
        <time>2014-05-20T14:08:22Z</time>
      </trkpt>
      <trkpt lat="49.4249" lon="0.21304">
        <ele>7</ele>
        <time>2014-05-20T14:08:44Z</time>
      </trkpt>
      <trkpt lat="49.42501" lon="0.21344">
        <ele>7</ele>
        <time>2014-05-20T14:09:06Z</time>
      </trkpt>
      <trkpt lat="49.42515" lon="0.2139">
        <ele>7</ele>
        <time>2014-05-20T14:09:31Z</time>
      </trkpt>
      <trkpt lat="49.4252" lon="0.21411">
        <ele>5</ele>
        <time>2014-05-20T14:09:46Z</time>
      </trkpt>
      <trkpt lat="49.42526" lon="0.21427">
        <ele>4</ele>
        <time>2014-05-20T14:10:08Z</time>
      </trkpt>
      <trkpt lat="49.42523" lon="0.2143">
        <ele>4</ele>
        <time>2014-05-20T14:10:20Z</time>
      </trkpt>
      <trkpt lat="49.42524" lon="0.21428">
        <ele>4</ele>
        <time>2014-05-20T14:10:40Z</time>
      </trkpt>
      <trkpt lat="49.42534" lon="0.2145">
        <ele>4</ele>
        <time>2014-05-20T14:10:56Z</time>
      </trkpt>
      <trkpt lat="49.4254" lon="0.21465">
        <ele>4</ele>
        <time>2014-05-20T14:11:04Z</time>
      </trkpt>
      <trkpt lat="49.42555" lon="0.21496">
        <ele>3</ele>
        <time>2014-05-20T14:11:21Z</time>
      </trkpt>
      <trkpt lat="49.42572" lon="0.2155">
        <ele>-1</ele>
        <time>2014-05-20T14:11:49Z</time>
      </trkpt>
      <trkpt lat="49.42597" lon="0.21618">
        <ele>-1</ele>
        <time>2014-05-20T14:12:22Z</time>
      </trkpt>
      <trkpt lat="49.42625" lon="0.21687">
        <ele>-2</ele>
        <time>2014-05-20T14:12:57Z</time>
      </trkpt>
      <trkpt lat="49.42654" lon="0.21753">
        <ele>-3</ele>
        <time>2014-05-20T14:13:30Z</time>
      </trkpt>
      <trkpt lat="49.42684" lon="0.21822">
        <ele>-3</ele>
        <time>2014-05-20T14:14:05Z</time>
      </trkpt>
      <trkpt lat="49.42704" lon="0.21871">
        <ele>-3</ele>
        <time>2014-05-20T14:14:30Z</time>
      </trkpt>
      <trkpt lat="49.42728" lon="0.21938">
        <ele>-2</ele>
        <time>2014-05-20T14:15:01Z</time>
      </trkpt>
      <trkpt lat="49.42738" lon="0.21968">
        <ele>-3</ele>
        <time>2014-05-20T14:15:15Z</time>
      </trkpt>
      <trkpt lat="49.42731" lon="0.22013">
        <ele>-1</ele>
        <time>2014-05-20T14:15:37Z</time>
      </trkpt>
      <trkpt lat="49.42729" lon="0.22063">
        <ele>-1</ele>
        <time>2014-05-20T14:16:01Z</time>
      </trkpt>
      <trkpt lat="49.4274" lon="0.22121">
        <ele>-3</ele>
        <time>2014-05-20T14:16:30Z</time>
      </trkpt>
      <trkpt lat="49.42757" lon="0.22176">
        <ele>-4</ele>
        <time>2014-05-20T14:16:57Z</time>
      </trkpt>
      <trkpt lat="49.42756" lon="0.22221">
        <ele>-2</ele>
        <time>2014-05-20T14:17:20Z</time>
      </trkpt>
      <trkpt lat="49.4275" lon="0.22252">
        <ele>-1</ele>
        <time>2014-05-20T14:17:39Z</time>
      </trkpt>
      <trkpt lat="49.42745" lon="0.22255">
        <ele>4.2</ele>
        <time>2014-05-20T14:17:44Z</time>
      </trkpt>
      <trkpt lat="49.42748" lon="0.22268">
        <ele>4.6</ele>
        <time>2014-05-20T14:17:54Z</time>
      </trkpt>
      <trkpt lat="49.42757" lon="0.22273">
        <ele>4.4</ele>
        <time>2014-05-20T14:18:14Z</time>
      </trkpt>
      <trkpt lat="49.42764" lon="0.2228">
        <ele>-1</ele>
        <time>2014-05-20T14:18:22Z</time>
      </trkpt>
      <trkpt lat="49.42769" lon="0.22287">
        <ele>-2</ele>
        <time>2014-05-20T14:18:39Z</time>
      </trkpt>
      <trkpt lat="49.42798" lon="0.22328">
        <ele>-3</ele>
        <time>2014-05-20T14:19:08Z</time>
      </trkpt>
      <trkpt lat="49.42821" lon="0.22358">
        <ele>-3</ele>
        <time>2014-05-20T14:19:32Z</time>
      </trkpt>
      <trkpt lat="49.42825" lon="0.2237">
        <ele>-2</ele>
        <time>2014-05-20T14:19:50Z</time>
      </trkpt>
      <trkpt lat="49.42825" lon="0.22371">
        <ele>-2</ele>
        <time>2014-05-20T14:19:58Z</time>
      </trkpt>
      <trkpt lat="49.42825" lon="0.22389">
        <ele>-1</ele>
        <time>2014-05-20T14:20:26Z</time>
      </trkpt>
      <trkpt lat="49.42825" lon="0.22388">
        <ele>-1</ele>
        <time>2014-05-20T14:20:35Z</time>
      </trkpt>
      <trkpt lat="49.42814" lon="0.22402">
        <ele>4.4</ele>
        <time>2014-05-20T14:20:46Z</time>
      </trkpt>
      <trkpt lat="49.4278" lon="0.22415">
        <ele>1</ele>
        <time>2014-05-20T14:21:12Z</time>
      </trkpt>
      <trkpt lat="49.42769" lon="0.22428">
        <ele>3</ele>
        <time>2014-05-20T14:21:28Z</time>
      </trkpt>
      <trkpt lat="49.42768" lon="0.22428">
        <ele>3</ele>
        <time>2014-05-20T14:21:41Z</time>
      </trkpt>
      <trkpt lat="49.42754" lon="0.22429">
        <ele>4</ele>
        <time>2014-05-20T14:21:56Z</time>
      </trkpt>
      <trkpt lat="49.42749" lon="0.22432">
        <ele>4</ele>
        <time>2014-05-20T14:22:00Z</time>
      </trkpt>
      <trkpt lat="49.42749" lon="0.22439">
        <ele>5</ele>
        <time>2014-05-20T14:22:19Z</time>
      </trkpt>
      <trkpt lat="49.42746" lon="0.22453">
        <ele>5</ele>
        <time>2014-05-20T14:22:40Z</time>
      </trkpt>
      <trkpt lat="49.42742" lon="0.22458">
        <ele>5</ele>
        <time>2014-05-20T14:22:44Z</time>
      </trkpt>
      <trkpt lat="49.42734" lon="0.22518">
        <ele>4</ele>
        <time>2014-05-20T14:23:11Z</time>
      </trkpt>
      <trkpt lat="49.42728" lon="0.22577">
        <ele>3</ele>
        <time>2014-05-20T14:23:36Z</time>
      </trkpt>
      <trkpt lat="49.42727" lon="0.22639">
        <ele>1</ele>
        <time>2014-05-20T14:24:03Z</time>
      </trkpt>
      <trkpt lat="49.4273" lon="0.22691">
        <ele>-1</ele>
        <time>2014-05-20T14:24:27Z</time>
      </trkpt>
      <trkpt lat="49.42712" lon="0.22717">
        <ele>-1</ele>
        <time>2014-05-20T14:24:45Z</time>
      </trkpt>
      <trkpt lat="49.42687" lon="0.2275">
        <ele>7</ele>
        <time>2014-05-20T14:25:07Z</time>
      </trkpt>
      <trkpt lat="49.42675" lon="0.22763">
        <ele>7</ele>
        <time>2014-05-20T14:25:17Z</time>
      </trkpt>
      <trkpt lat="49.42653" lon="0.22786">
        <ele>-1</ele>
        <time>2014-05-20T14:25:36Z</time>
      </trkpt>
      <trkpt lat="49.42649" lon="0.2279">
        <ele>-1</ele>
        <time>2014-05-20T14:25:40Z</time>
      </trkpt>
      <trkpt lat="49.42629" lon="0.2281">
        <ele>7.1</ele>
        <time>2014-05-20T14:25:59Z</time>
      </trkpt>
      <trkpt lat="49.42607" lon="0.22832">
        <ele>7.1</ele>
        <time>2014-05-20T14:26:19Z</time>
      </trkpt>
      <trkpt lat="49.4257" lon="0.22863">
        <ele>1</ele>
        <time>2014-05-20T14:26:53Z</time>
      </trkpt>
      <trkpt lat="49.42559" lon="0.22878">
        <ele>7</ele>
        <time>2014-05-20T14:27:12Z</time>
      </trkpt>
      <trkpt lat="49.42558" lon="0.22878">
        <ele>2</ele>
        <time>2014-05-20T14:27:31Z</time>
      </trkpt>
      <trkpt lat="49.42561" lon="0.22878">
        <ele>2</ele>
        <time>2014-05-20T14:27:35Z</time>
      </trkpt>
      <trkpt lat="49.42557" lon="0.22876">
        <ele>3</ele>
        <time>2014-05-20T14:27:41Z</time>
      </trkpt>
      <trkpt lat="49.42556" lon="0.22888">
        <ele>2</ele>
        <time>2014-05-20T14:27:50Z</time>
      </trkpt>
      <trkpt lat="49.42564" lon="0.22893">
        <ele>4</ele>
        <time>2014-05-20T14:28:06Z</time>
      </trkpt>
      <trkpt lat="49.42567" lon="0.22893">
        <ele>3</ele>
        <time>2014-05-20T14:28:29Z</time>
      </trkpt>
      <trkpt lat="49.42571" lon="0.22899">
        <ele>2</ele>
        <time>2014-05-20T14:28:52Z</time>
      </trkpt>
      <trkpt lat="49.42573" lon="0.22902">
        <ele>2</ele>
        <time>2014-05-20T14:29:09Z</time>
      </trkpt>
      <trkpt lat="49.42572" lon="0.22901">
        <ele>1</ele>
        <time>2014-05-20T14:29:34Z</time>
      </trkpt>
      <trkpt lat="49.42571" lon="0.229">
        <ele>-1</ele>
        <time>2014-05-20T14:29:59Z</time>
      </trkpt>
      <trkpt lat="49.42574" lon="0.22902">
        <ele>7</ele>
        <time>2014-05-20T14:30:23Z</time>
      </trkpt>
      <trkpt lat="49.42567" lon="0.22887">
        <ele>7</ele>
        <time>2014-05-20T14:30:41Z</time>
      </trkpt>
      <trkpt lat="49.42567" lon="0.22887">
        <ele>7</ele>
        <time>2014-05-20T14:31:20Z</time>
      </trkpt>
      <trkpt lat="49.42565" lon="0.22891">
        <ele>7</ele>
        <time>2014-05-20T14:31:34Z</time>
      </trkpt>
      <trkpt lat="49.42548" lon="0.22894">
        <ele>2</ele>
        <time>2014-05-20T14:31:57Z</time>
      </trkpt>
      <trkpt lat="49.42538" lon="0.22882">
        <ele>3</ele>
        <time>2014-05-20T14:32:23Z</time>
      </trkpt>
      <trkpt lat="49.42539" lon="0.22879">
        <ele>4</ele>
        <time>2014-05-20T14:32:51Z</time>
      </trkpt>
      <trkpt lat="49.42539" lon="0.22879">
        <ele>4</ele>
        <time>2014-05-20T14:33:03Z</time>
      </trkpt>
    </trkseg>
  </trk>
</gpx>